Terminal Aerodrome Forecast
Issued by NWS Charleston, WV

Home | Current Version | Previous Version | Text Only | Print | Product List | Glossary On
Versions: 1 2 3 4 5 6 7 8 9 10 11 12 13 14 15 16 17 18 19 20 21 22 23 24 25 26 27
000
FTUS41 KRLX 041120
TAFPKB
TAF
KPKB 041120Z 0412/0512 00000KT 5SM BR SCT040 BKN070
     FM041300 00000KT P6SM VCTS SCT040CB BKN070
     FM041500 00000KT P6SM BKN040
     FM041900 00000KT P6SM VCTS BKN040CB
     FM042200 00000KT P6SM BKN040
     FM050700 00000KT 5SM BR BKN040
     FM050800 00000KT 2SM BR SCT040=

USA.gov is the U.S. government's official web portal to all federal, state and local government web resources and services.